Estación Meteorológica Peña el Pijo (Robertgarden) [ 08/17/18 05:38:20 CEST ]

Fecha Hora Presion(HPa) Temp (°C) Humedad % Rocio (°C) Viento ( m/s) Direccion Lluvia 1Hora(mm) Lluvia 24H(mm) LLuvia Total(mm)
2018-Apr-25 01:02:02 1009.600 11.8 60 4.3         203.05
2018-Apr-25 02:01:46 1009.100 10.7 64 4.1         203.05
2018-Apr-25 03:01:41 1008.500 10.3 68 4.6         203.05
2018-Apr-25 04:01:41 1007.200 9.6 70 4.4         203.05
2018-Apr-25 05:01:40 1007.700 8.9 73 4.3         203.05
2018-Apr-25 06:05:09 1008.100 8.8 75 4.6         203.05
2018-Apr-25 07:01:41 1007.900 8.6 76 4.6         203.05
2018-Apr-25 08:01:53 1008.200 8.6 77 4.8         203.05
2018-Apr-25 09:01:38 1008.200 10.6 77 6.7         203.05
2018-Apr-25 10:01:29 1008.100 16.6 60 8.8         203.05
2018-Apr-25 11:01:51 1008.100 16.6 53 6.9         203.05
2018-Apr-25 12:01:44 1008.000 18.9 48 7.6         203.05
2018-Apr-25 13:01:58 1008.300 18.8 44 6.2 0.6 SSW     203.05
2018-Apr-25 14:01:48 1008.100 17.4 45 5.3         203.05
2018-Apr-25 15:01:46 1007.800 18.1 46 6.2 1.1 SE     203.05
2018-Apr-25 16:02:00 1007.600 17.4 45 5.3         203.05
2018-Apr-25 17:01:46 1007.200 16.5 49 5.7 0.9 S     203.05
2018-Apr-25 18:01:56 1006.900 16.9 49 6.1         203.05
2018-Apr-25 19:01:48 1006.900 16.5 51 6.3         203.05
2018-Apr-25 20:01:39 1007.000 16.1 54 6.8 2.2 SW     203.05
2018-Apr-25 21:01:40 1007.500 14.7 57 6.2         203.05
2018-Apr-25 22:01:36 1008.200 14.7 59 6.8         203.05
2018-Apr-25 23:01:46 1009.000 13.9 64 7.2         203.05

Temperatura Máxima:18°    Temperatura Mínima:
Presión Máxima:1009.600 Hpa    Presión Mínima:1006.900 Hpa


Volver